createdAt,value
2022-08-17T00:00:42.958Z,76.27
2022-08-17T00:03:11.298Z,76.51
2022-08-17T00:06:07.209Z,76.82
2022-08-17T00:08:39.833Z,76.90
2022-08-17T00:11:12.498Z,76.82
2022-08-17T00:13:48.119Z,76.82
2022-08-17T00:16:55.440Z,76.68
2022-08-17T00:19:23.784Z,76.70
2022-08-17T00:22:32.060Z,76.64
2022-08-17T00:24:44.400Z,76.41
2022-08-17T00:27:12.644Z,76.21
2022-08-17T00:29:41.219Z,75.86
2022-08-17T00:33:14.210Z,75.66
2022-08-17T00:34:57.628Z,75.48
2022-08-17T00:37:25.816Z,75.43
2022-08-17T00:39:54.130Z,75.33
2022-08-17T00:42:22.360Z,75.35
2022-08-17T00:44:50.788Z,75.10
2022-08-17T00:47:19.022Z,75.11
2022-08-17T00:49:47.335Z,75.22
2022-08-17T00:52:21.855Z,75.76
2022-08-17T00:54:53.051Z,76.29
2022-08-17T00:57:33.163Z,76.92
2022-08-17T01:00:07.084Z,77.16
2022-08-17T01:02:42.712Z,77.18
2022-08-17T01:05:21.141Z,77.22
2022-08-17T01:07:53.055Z,77.35
2022-08-17T01:11:00.533Z,77.41
2022-08-17T01:13:17.096Z,77.56
2022-08-17T01:15:57.588Z,78.03
2022-08-17T01:18:27.062Z,77.99
2022-08-17T01:20:57.824Z,78.24
2022-08-17T01:23:29.004Z,78.25
2022-08-17T01:25:59.976Z,78.10
2022-08-17T01:28:36.389Z,78.16
2022-08-17T01:31:19.923Z,78.24
2022-08-17T01:33:48.167Z,78.31
2022-08-17T01:36:16.375Z,78.37
2022-08-17T01:38:44.643Z,78.33
2022-08-17T01:41:16.681Z,78.27
2022-08-17T01:43:51.163Z,78.18
2022-08-17T01:46:24.477Z,77.97
2022-08-17T01:48:53.737Z,78.05
2022-08-17T01:51:22.539Z,78.07
2022-08-17T01:53:57.657Z,77.93
2022-08-17T01:56:28.810Z,78.09
2022-08-17T01:58:57.466Z,78.04
2022-08-17T02:01:29.612Z,77.93
2022-08-17T02:04:00.462Z,77.90
2022-08-17T02:06:52.431Z,78.04
2022-08-17T02:09:23.338Z,77.82
2022-08-17T02:11:58.597Z,77.88
2022-08-17T02:14:27.238Z,78.03
2022-08-17T02:16:56.253Z,77.77
2022-08-17T02:19:24.517Z,77.52
2022-08-17T02:21:54.324Z,77.66
2022-08-17T02:25:01.115Z,77.59
2022-08-17T02:27:20.574Z,77.40
2022-08-17T02:29:48.822Z,77.61
2022-08-17T02:32:27.561Z,77.41
2022-08-17T02:35:00.333Z,77.12
2022-08-17T02:37:30.073Z,77.14
2022-08-17T02:39:59.685Z,77.07
2022-08-17T02:42:33.918Z,77.08
2022-08-17T02:45:03.168Z,76.93
2022-08-17T02:47:31.506Z,77.07
2022-08-17T02:49:59.900Z,77.16
2022-08-17T02:52:43.492Z,77.26
2022-08-17T02:55:29.909Z,77.31
2022-08-17T02:57:58.666Z,77.31
2022-08-17T03:00:34.014Z,77.33
2022-08-17T03:03:04.849Z,77.09
2022-08-17T03:05:36.122Z,77.19
2022-08-17T03:08:05.953Z,77.30
2022-08-17T03:10:34.673Z,77.31
2022-08-17T03:13:03.264Z,77.19
2022-08-17T03:15:34.350Z,77.25
2022-08-17T03:18:03.736Z,77.46
2022-08-17T03:20:33.309Z,77.49
2022-08-17T03:23:02.744Z,77.44
2022-08-17T03:25:35.517Z,77.65
2022-08-17T03:28:05.001Z,77.91
2022-08-17T03:30:34.485Z,78.27
2022-08-17T03:33:05.666Z,78.56
2022-08-17T03:35:36.625Z,78.95
2022-08-17T03:38:05.298Z,78.98
2022-08-17T03:40:34.494Z,79.01
2022-08-17T03:43:22.897Z,79.54
2022-08-17T03:46:34.004Z,79.58
2022-08-17T03:49:17.030Z,79.66
2022-08-17T03:52:03.812Z,79.92
2022-08-17T03:54:50.518Z,80.04
2022-08-17T03:57:19.416Z,80.31
2022-08-17T03:59:47.910Z,80.37
2022-08-17T04:02:20.189Z,80.24
2022-08-17T04:04:51.299Z,80.45
2022-08-17T04:07:24.361Z,80.46
2022-08-17T04:09:52.505Z,80.63
2022-08-17T04:12:23.615Z,80.66
2022-08-17T04:14:54.673Z,80.58
2022-08-17T04:17:28.562Z,80.71
2022-08-17T04:19:57.392Z,80.54
2022-08-17T04:22:31.347Z,80.41
2022-08-17T04:25:23.977Z,80.23
2022-08-17T04:27:52.453Z,80.26
2022-08-17T04:30:21.285Z,80.13
2022-08-17T04:33:06.157Z,80.11
2022-08-17T04:35:41.910Z,80.02
2022-08-17T04:38:15.907Z,79.82
2022-08-17T04:41:02.721Z,80.08
2022-08-17T04:43:33.000Z,80.06
2022-08-17T04:46:05.539Z,79.56
2022-08-17T04:48:45.904Z,79.41
2022-08-17T04:51:27.947Z,79.42
2022-08-17T04:53:59.491Z,79.10
2022-08-17T04:56:29.537Z,78.98
2022-08-17T04:59:01.449Z,78.95
2022-08-17T05:01:32.462Z,78.63
2022-08-17T05:04:33.159Z,78.72
2022-08-17T05:06:54.685Z,78.50
2022-08-17T05:09:23.005Z,78.42
2022-08-17T05:11:52.708Z,77.99
2022-08-17T05:14:32.930Z,77.88
2022-08-17T05:17:07.088Z,77.37
2022-08-17T05:19:39.550Z,77.25
2022-08-17T05:22:07.953Z,77.01
2022-08-17T05:24:42.727Z,77.17
2022-08-17T05:27:19.067Z,77.06
2022-08-17T05:29:47.481Z,76.56
2022-08-17T05:32:39.173Z,76.64
2022-08-17T05:35:05.557Z,76.44
2022-08-17T05:37:33.741Z,76.21
2022-08-17T05:40:02.066Z,76.56
2022-08-17T05:42:30.351Z,76.34
2022-08-17T05:44:59.030Z,76.35
2022-08-17T05:47:27.742Z,76.32
2022-08-17T05:49:56.414Z,76.54
2022-08-17T05:53:02.357Z,76.17
2022-08-17T05:55:42.386Z,75.76
2022-08-17T05:58:39.647Z,75.60
2022-08-17T06:01:15.939Z,75.25
2022-08-17T06:03:44.133Z,75.41
2022-08-17T06:06:40.862Z,75.12
2022-08-17T06:09:25.739Z,74.79
2022-08-17T06:12:32.814Z,74.57
2022-08-17T06:15:26.373Z,74.05
2022-08-17T06:17:58.674Z,73.58
2022-08-17T06:20:38.692Z,73.22
2022-08-17T06:23:12.314Z,72.91
2022-08-17T06:25:50.430Z,73.01
2022-08-17T06:28:30.586Z,72.67
2022-08-17T06:31:05.881Z,72.44
2022-08-17T06:33:37.682Z,72.39
2022-08-17T06:36:13.796Z,72.29
2022-08-17T06:38:53.710Z,71.85
2022-08-17T06:41:32.617Z,71.78
2022-08-17T06:44:43.390Z,71.32
2022-08-17T06:47:13.730Z,70.97
2022-08-17T06:49:44.935Z,71.13
2022-08-17T06:52:45.835Z,70.95
2022-08-17T06:55:20.401Z,71.35
2022-08-17T06:57:58.217Z,71.11
2022-08-17T07:00:47.865Z,70.69
2022-08-17T07:03:39.912Z,70.72
2022-08-17T07:06:15.108Z,70.42
2022-08-17T07:09:01.223Z,70.26
2022-08-17T07:11:36.903Z,70.35
2022-08-17T07:14:37.709Z,70.22
2022-08-17T07:17:12.260Z,70.21
2022-08-17T07:19:45.730Z,70.40
2022-08-17T07:22:16.581Z,70.30
2022-08-17T07:24:47.525Z,70.19
2022-08-17T07:27:22.165Z,70.43
2022-08-17T07:29:53.856Z,70.58
2022-08-17T07:32:27.533Z,70.49
2022-08-17T07:35:17.491Z,70.62
2022-08-17T07:38:24.857Z,70.88
2022-08-17T07:41:03.819Z,70.68
2022-08-17T07:43:38.132Z,70.04
2022-08-17T07:46:42.940Z,69.81
2022-08-17T07:49:11.343Z,69.80
2022-08-17T07:51:44.301Z,69.87
2022-08-17T07:54:15.346Z,69.53
2022-08-17T07:56:45.887Z,68.34
2022-08-17T07:59:23.198Z,67.94
2022-08-17T08:01:57.599Z,67.40
2022-08-17T08:05:00.581Z,66.57
2022-08-17T08:07:36.089Z,66.03
2022-08-17T08:10:07.209Z,65.89
2022-08-17T08:12:43.456Z,65.69
2022-08-17T08:15:19.083Z,65.23
2022-08-17T08:17:54.601Z,64.11
2022-08-17T08:20:51.556Z,63.69
2022-08-17T08:23:50.956Z,63.57
2022-08-17T08:26:39.788Z,63.54
2022-08-17T08:29:32.905Z,62.38
2022-08-17T08:32:25.743Z,62.02
2022-08-17T08:35:29.779Z,62.15
2022-08-17T08:38:20.199Z,62.02
2022-08-17T08:40:51.328Z,61.23
2022-08-17T08:43:19.531Z,60.85
2022-08-17T08:45:50.729Z,60.37
2022-08-17T08:48:56.396Z,60.51
2022-08-17T08:51:51.681Z,59.72
2022-08-17T08:54:33.798Z,58.83
2022-08-17T08:57:29.176Z,58.30
2022-08-17T09:00:20.870Z,57.67
2022-08-17T09:03:13.381Z,57.20
2022-08-17T09:06:06.953Z,56.56
2022-08-17T09:09:10.420Z,56.18
2022-08-17T09:12:01.162Z,55.26
2022-08-17T09:14:50.052Z,54.28
2022-08-17T09:17:30.211Z,53.88
2022-08-17T09:20:28.237Z,53.18
2022-08-17T09:23:08.808Z,52.66
2022-08-17T09:25:51.812Z,51.81
2022-08-17T09:28:28.177Z,50.97
2022-08-17T09:31:04.804Z,49.81
2022-08-17T09:33:40.096Z,48.93
2022-08-17T09:36:26.439Z,48.38
2022-08-17T09:39:01.807Z,47.87
2022-08-17T09:41:51.840Z,47.02
2022-08-17T09:44:36.231Z,46.74
2022-08-17T09:47:19.440Z,45.46
2022-08-17T09:49:54.388Z,45.15
2022-08-17T09:52:29.528Z,45.45
2022-08-17T09:55:01.084Z,45.08
2022-08-17T09:57:38.108Z,44.83
2022-08-17T10:00:27.618Z,45.46
2022-08-17T10:03:25.563Z,45.99
2022-08-17T10:06:07.885Z,45.77
2022-08-17T10:09:10.044Z,46.39
2022-08-17T10:12:17.355Z,46.83
2022-08-17T10:14:55.584Z,47.77
2022-08-17T10:17:30.317Z,48.50
2022-08-17T10:20:12.731Z,48.98
2022-08-17T10:23:08.293Z,49.92
2022-08-17T10:26:00.643Z,50.02
2022-08-17T10:28:36.996Z,49.35
2022-08-17T10:34:28.040Z,49.69
2022-08-17T10:37:28.667Z,49.24
2022-08-17T10:40:15.382Z,48.60
2022-08-17T10:42:50.395Z,47.55
2022-08-17T10:45:26.451Z,46.76
2022-08-17T10:48:06.167Z,46.95
2022-08-17T10:50:57.824Z,46.83
2022-08-17T10:53:31.954Z,47.03
2022-08-17T10:56:12.067Z,46.60
2022-08-17T10:58:55.447Z,46.70
2022-08-17T11:01:32.910Z,44.87
2022-08-17T11:04:18.171Z,44.99
2022-08-17T11:07:14.709Z,44.67
2022-08-17T11:10:08.698Z,44.54
2022-08-17T11:12:55.394Z,45.10
2022-08-17T11:15:59.106Z,46.00
2022-08-17T11:19:10.330Z,46.15
2022-08-17T11:21:59.726Z,45.77
2022-08-17T11:24:31.063Z,45.74
2022-08-17T11:27:12.122Z,46.62
2022-08-17T11:30:01.487Z,45.48
2022-08-17T11:32:47.492Z,46.46
2022-08-17T11:35:22.375Z,46.94
2022-08-17T11:38:16.276Z,48.24
2022-08-17T11:41:00.333Z,49.89
2022-08-17T11:43:28.415Z,51.31
2022-08-17T11:46:20.542Z,52.30
2022-08-17T11:49:32.830Z,53.03
2022-08-17T11:52:01.410Z,53.62
2022-08-17T11:54:46.472Z,54.16
2022-08-17T11:57:26.931Z,55.34
2022-08-17T11:59:58.444Z,55.19
2022-08-17T12:02:32.890Z,54.73
2022-08-17T12:05:23.175Z,54.59
2022-08-17T12:07:57.541Z,53.71
2022-08-17T12:10:32.144Z,53.79
2022-08-17T12:13:13.348Z,53.64
2022-08-17T12:15:54.184Z,54.03
2022-08-17T12:18:24.808Z,54.32
2022-08-17T12:21:30.687Z,53.48
2022-08-17T12:23:58.904Z,52.05
2022-08-17T12:26:34.085Z,51.66
2022-08-17T12:29:17.837Z,51.29
2022-08-17T12:32:02.267Z,51.70
2022-08-17T12:34:36.631Z,51.87
2022-08-17T12:37:16.396Z,51.41
2022-08-17T12:40:04.218Z,52.00
2022-08-17T12:42:37.433Z,53.36
2022-08-17T12:45:21.212Z,54.16
2022-08-17T12:47:49.586Z,54.69
2022-08-17T12:50:29.602Z,54.57
2022-08-17T12:53:02.321Z,54.94
2022-08-17T12:55:37.229Z,55.40
2022-08-17T12:58:09.872Z,55.61
2022-08-17T13:00:48.847Z,55.72
2022-08-17T13:03:21.088Z,55.62
2022-08-17T13:05:52.105Z,55.59
2022-08-17T13:08:31.772Z,55.55
2022-08-17T13:11:04.173Z,55.66
2022-08-17T13:13:35.427Z,55.92
2022-08-17T13:16:26.610Z,55.66
2022-08-17T13:19:16.735Z,54.18
2022-08-17T13:21:55.129Z,52.95
2022-08-17T13:24:38.217Z,52.77
2022-08-17T13:27:08.682Z,52.57
2022-08-17T13:29:53.603Z,51.44
2022-08-17T13:32:45.125Z,50.12
2022-08-17T13:35:40.003Z,49.18
2022-08-17T13:38:15.302Z,48.56
2022-08-17T13:40:50.813Z,47.17
2022-08-17T13:43:49.644Z,46.19
2022-08-17T13:46:26.309Z,46.10
2022-08-17T13:49:02.256Z,46.11
2022-08-17T13:51:35.256Z,46.45
2022-08-17T13:54:08.094Z,46.01
2022-08-17T13:56:50.132Z,45.32
2022-08-17T13:59:53.239Z,45.70
2022-08-17T14:02:19.936Z,46.37
2022-08-17T14:04:48.948Z,45.87
2022-08-17T14:07:18.317Z,44.95
2022-08-17T14:09:49.401Z,44.12
2022-08-17T14:12:21.733Z,44.23
2022-08-17T14:14:49.817Z,43.62
2022-08-17T14:17:19.152Z,44.09
2022-08-17T14:19:48.292Z,44.34
2022-08-17T14:22:23.808Z,44.26
2022-08-17T14:24:52.226Z,44.81
2022-08-17T14:27:21.225Z,44.65
2022-08-17T14:29:49.362Z,43.55
2022-08-17T14:32:27.173Z,43.62
2022-08-17T14:34:57.841Z,43.55
2022-08-17T14:37:28.613Z,43.54
2022-08-17T14:40:03.864Z,43.67
2022-08-17T14:42:35.227Z,43.35
2022-08-17T14:45:06.394Z,43.75
2022-08-17T14:47:54.517Z,43.42
2022-08-17T14:50:24.057Z,42.98
2022-08-17T14:52:52.367Z,42.64
2022-08-17T14:55:21.383Z,42.36
2022-08-17T14:57:49.752Z,41.91
2022-08-17T15:00:18.253Z,42.03
2022-08-17T15:02:53.904Z,42.80
2022-08-17T15:05:24.771Z,43.65
2022-08-17T15:07:54.006Z,44.10
2022-08-17T15:10:23.976Z,44.52
2022-08-17T15:12:54.588Z,44.94
2022-08-17T15:15:23.127Z,45.11
2022-08-17T15:17:51.783Z,45.09
2022-08-17T15:20:24.240Z,44.73
2022-08-17T15:22:56.230Z,45.10
2022-08-17T15:25:30.410Z,45.56
2022-08-17T15:27:59.540Z,45.41
2022-08-17T15:30:29.444Z,45.30
2022-08-17T15:32:59.580Z,44.98
2022-08-17T15:35:32.445Z,44.87
2022-08-17T15:38:11.334Z,45.13
2022-08-17T15:40:44.317Z,45.56
2022-08-17T15:43:15.615Z,45.55
2022-08-17T15:45:43.949Z,46.13
2022-08-17T15:48:14.780Z,46.76
2022-08-17T15:50:45.232Z,46.61
2022-08-17T15:53:14.304Z,46.90
2022-08-17T15:55:43.224Z,47.66
2022-08-17T15:58:11.563Z,48.18
2022-08-17T16:01:06.838Z,48.43
2022-08-17T16:03:58.047Z,48.62
2022-08-17T16:06:17.796Z,48.66
2022-08-17T16:08:46.107Z,48.90
2022-08-17T16:11:17.096Z,49.30
2022-08-17T16:13:51.300Z,49.54
2022-08-17T16:16:23.814Z,49.56
2022-08-17T16:18:56.340Z,50.52
2022-08-17T16:21:29.566Z,50.87
2022-08-17T16:24:04.141Z,51.69
2022-08-17T16:26:35.504Z,52.47
2022-08-17T16:29:06.860Z,52.79
2022-08-17T16:31:36.302Z,53.48
2022-08-17T16:34:17.304Z,54.36
2022-08-17T16:36:55.415Z,55.08
2022-08-17T16:39:29.346Z,55.78
2022-08-17T16:41:57.902Z,56.14
2022-08-17T16:44:31.016Z,56.33
2022-08-17T16:47:01.395Z,56.54
2022-08-17T16:49:36.762Z,56.88
2022-08-17T16:52:10.471Z,56.99
2022-08-17T16:54:43.813Z,57.01
2022-08-17T16:57:13.943Z,57.02
2022-08-17T16:59:44.913Z,56.91
2022-08-17T17:02:14.498Z,56.92
2022-08-17T17:05:20.830Z,57.21
2022-08-17T17:07:55.566Z,57.54
2022-08-17T17:10:30.938Z,57.81
2022-08-17T17:13:03.553Z,57.87
2022-08-17T17:15:39.809Z,57.82
2022-08-17T17:18:13.096Z,57.93
2022-08-17T17:20:59.426Z,58.06
2022-08-17T17:23:43.747Z,58.39
2022-08-17T17:26:20.113Z,58.64
2022-08-17T17:29:00.381Z,58.84
2022-08-17T17:31:38.525Z,58.99
2022-08-17T17:34:10.792Z,59.14
2022-08-17T17:36:50.856Z,59.17
2022-08-17T17:39:43.746Z,59.27
2022-08-17T17:42:20.628Z,59.47
2022-08-17T17:44:59.504Z,59.64
2022-08-17T17:47:29.704Z,59.94
2022-08-17T17:50:01.493Z,60.07
2022-08-17T17:52:41.186Z,60.21
2022-08-17T17:55:18.426Z,60.35
2022-08-17T17:57:54.586Z,60.60
2022-08-17T18:00:49.154Z,60.85
2022-08-17T18:03:23.189Z,61.33
2022-08-17T18:06:06.403Z,61.58
2022-08-17T18:08:34.828Z,61.80
2022-08-17T18:11:12.270Z,61.89
2022-08-17T18:13:58.950Z,61.95
2022-08-17T18:16:31.902Z,61.96
2022-08-17T18:19:00.604Z,62.15
2022-08-17T18:21:44.418Z,62.25
2022-08-17T18:24:13.465Z,62.52
2022-08-17T18:26:42.026Z,62.69
2022-08-17T18:29:22.418Z,62.99
2022-08-17T18:32:16.410Z,63.26
2022-08-17T18:34:48.385Z,63.49
2022-08-17T18:37:43.401Z,63.83
2022-08-17T18:40:17.951Z,64.02
2022-08-17T18:43:05.890Z,64.31
2022-08-17T18:45:34.111Z,64.50
2022-08-17T18:48:02.700Z,64.66
2022-08-17T18:50:41.501Z,64.95
2022-08-17T18:53:40.886Z,65.22
2022-08-17T18:56:20.725Z,65.28
2022-08-17T18:59:11.921Z,65.59
2022-08-17T19:01:59.853Z,65.73
2022-08-17T19:04:59.441Z,65.93
2022-08-17T19:07:32.178Z,66.08
2022-08-17T19:10:09.177Z,66.18
2022-08-17T19:12:40.330Z,66.39
2022-08-17T19:15:12.516Z,66.50
2022-08-17T19:17:46.419Z,66.67
2022-08-17T19:20:17.572Z,66.68
2022-08-17T19:22:55.941Z,66.69
2022-08-17T19:25:29.754Z,66.78
2022-08-17T19:28:22.273Z,66.98
2022-08-17T19:30:56.641Z,67.25
2022-08-17T19:33:26.311Z,67.46
2022-08-17T19:36:24.006Z,67.86
2022-08-17T19:39:26.434Z,68.20
2022-08-17T19:42:18.082Z,68.38
2022-08-17T19:44:58.930Z,68.35
2022-08-17T19:47:53.831Z,68.08
2022-08-17T19:50:41.197Z,68.50
2022-08-17T19:54:01.579Z,68.58
2022-08-17T19:56:26.900Z,69.10
2022-08-17T19:59:11.880Z,69.38
2022-08-17T20:02:01.132Z,69.67
2022-08-17T20:04:32.365Z,69.58
2022-08-17T20:07:06.451Z,69.95
2022-08-17T20:09:38.202Z,69.94
2022-08-17T20:12:18.685Z,69.86
2022-08-17T20:15:27.764Z,69.66
2022-08-17T20:18:00.109Z,69.79
2022-08-17T20:20:35.908Z,69.79
2022-08-17T20:23:31.895Z,70.03
2022-08-17T20:26:18.961Z,69.94
2022-08-17T20:29:10.449Z,70.06
2022-08-17T20:31:58.695Z,70.01
2022-08-17T20:34:33.574Z,70.13
2022-08-17T20:37:14.900Z,70.12
2022-08-17T20:40:09.293Z,70.21
2022-08-17T20:42:37.729Z,70.03
2022-08-17T20:45:21.160Z,69.96
2022-08-17T20:48:18.457Z,70.31
2022-08-17T20:50:50.734Z,70.52
2022-08-17T20:53:52.315Z,70.47
2022-08-17T20:56:43.507Z,70.61
2022-08-17T20:59:20.550Z,70.55
2022-08-17T21:02:17.664Z,70.57
2022-08-17T21:04:50.045Z,70.40
2022-08-17T21:07:43.597Z,70.59
2022-08-17T21:10:18.097Z,70.70
2022-08-17T21:12:51.542Z,70.86
2022-08-17T21:15:38.095Z,71.03
2022-08-17T21:18:18.456Z,71.35
2022-08-17T21:21:20.930Z,71.46
2022-08-17T21:24:07.033Z,71.42
2022-08-17T21:26:39.038Z,71.51
2022-08-17T21:29:31.889Z,71.63
2022-08-17T21:32:02.153Z,71.74
2022-08-17T21:34:37.285Z,71.82
2022-08-17T21:37:20.500Z,71.65
2022-08-17T21:39:51.926Z,71.77
2022-08-17T21:42:29.201Z,71.88
2022-08-17T21:45:08.114Z,71.65
2022-08-17T21:47:40.681Z,72.02
2022-08-17T21:50:25.175Z,71.99
2022-08-17T21:52:54.593Z,71.93
2022-08-17T21:55:30.291Z,71.87
2022-08-17T21:58:14.054Z,71.88
2022-08-17T22:00:46.355Z,72.03
2022-08-17T22:03:30.377Z,72.00
2022-08-17T22:05:58.518Z,72.16
2022-08-17T22:08:26.982Z,72.23
2022-08-17T22:11:02.150Z,72.32
2022-08-17T22:13:30.325Z,72.39
2022-08-17T22:16:05.900Z,72.24
2022-08-17T22:18:53.727Z,72.56
2022-08-17T22:21:22.441Z,72.41
2022-08-17T22:24:04.429Z,72.52
2022-08-17T22:27:00.395Z,72.53
2022-08-17T22:29:46.863Z,72.62
2022-08-17T22:32:38.514Z,72.76
2022-08-17T22:35:32.659Z,72.70
2022-08-17T22:38:19.103Z,72.90
2022-08-17T22:40:53.912Z,73.01
2022-08-17T22:43:26.304Z,73.02
2022-08-17T22:46:00.160Z,73.00
2022-08-17T22:48:29.091Z,73.08
2022-08-17T22:51:14.473Z,73.39
2022-08-17T22:54:07.997Z,73.45
2022-08-17T22:56:55.141Z,73.27
2022-08-17T22:59:41.949Z,73.52
2022-08-17T23:02:14.850Z,73.57
2022-08-17T23:05:16.613Z,73.70
2022-08-17T23:07:46.727Z,73.53
2022-08-17T23:10:15.498Z,73.67
2022-08-17T23:12:43.617Z,73.78
2022-08-17T23:15:16.294Z,73.84
2022-08-17T23:17:45.484Z,74.01
2022-08-17T23:20:15.739Z,74.01
2022-08-17T23:22:52.194Z,74.07
2022-08-17T23:25:31.041Z,74.21
2022-08-17T23:28:03.728Z,74.16
2022-08-17T23:30:43.422Z,74.15
2022-08-17T23:33:39.877Z,74.15
2022-08-17T23:36:09.883Z,74.28
2022-08-17T23:38:38.016Z,74.29
2022-08-17T23:41:12.269Z,74.33
2022-08-17T23:43:56.516Z,74.42
2022-08-17T23:46:25.240Z,74.45
2022-08-17T23:48:54.189Z,74.44
2022-08-17T23:51:27.528Z,74.39
2022-08-17T23:54:05.787Z,74.29
2022-08-17T23:56:44.579Z,74.49
2022-08-17T23:59:15.040Z,74.67
